Time;durP1;ratioP1;P1;durP2;ratioP2;P2;SDS_P1;SDS_P2;PMS_P1;PMS_P2;Temp;Humidity;BMP_temperature;BMP_pressure;BME280_temperature;BME280_humidity;BME280_pressure;Samples;Min_cycle;Max_cycle;Signal;HPM_P1;HPM_P2
2023/06/03 00:00:24;;;;;;;7.70;4.07;;;13.00;99.90;;;;;;5047270;28;20236;-78
2023/06/03 00:02:53;;;;;;;9.60;3.73;;;13.00;99.90;;;;;;5054834;28;20194;-77
2023/06/03 00:05:20;;;;;;;5.73;3.97;;;12.90;99.90;;;;;;5055491;28;20198;-77
2023/06/03 00:07:47;;;;;;;6.93;4.13;;;12.90;99.90;;;;;;5046337;28;20289;-76
2023/06/03 00:10:15;;;;;;;7.27;3.70;;;12.90;99.90;;;;;;5034793;28;20771;-77
2023/06/03 00:12:42;;;;;;;7.43;3.97;;;12.90;99.90;;;;;;5035171;28;20218;-77
2023/06/03 00:15:10;;;;;;;9.37;4.13;;;12.90;99.90;;;;;;5035419;28;20672;-77
2023/06/03 00:17:37;;;;;;;11.93;4.23;;;12.80;99.90;;;;;;5034447;28;20290;-77
2023/06/03 00:20:09;;;;;;;7.73;4.03;;;12.90;99.90;;;;;;5035250;28;20205;-77
2023/06/03 00:22:37;;;;;;;6.87;4.10;;;12.90;99.90;;;;;;5035494;28;20222;-78
2023/06/03 00:25:04;;;;;;;5.73;3.80;;;12.80;99.90;;;;;;5034611;28;20206;-76
2023/06/03 00:27:33;;;;;;;9.30;4.27;;;12.90;99.90;;;;;;5034955;28;20599;-76
2023/06/03 00:29:59;;;;;;;6.43;4.10;;;12.80;99.90;;;;;;5034276;28;20290;-77
2023/06/03 00:32:26;;;;;;;9.67;4.23;;;12.90;99.90;;;;;;5035103;28;20342;-77
2023/06/03 00:34:53;;;;;;;6.50;3.50;;;12.90;99.90;;;;;;5035009;28;20223;-77
2023/06/03 00:37:20;;;;;;;6.40;3.90;;;12.90;99.90;;;;;;5034119;28;20317;-77
2023/06/03 00:39:47;;;;;;;6.43;3.87;;;12.90;99.90;;;;;;5034279;28;20205;-77
2023/06/03 00:42:14;;;;;;;9.63;3.90;;;12.90;99.90;;;;;;5034383;28;20215;-77
2023/06/03 00:44:42;;;;;;;8.77;4.00;;;12.80;99.90;;;;;;5034213;28;20513;-78
2023/06/03 00:47:09;;;;;;;10.97;4.50;;;12.80;99.90;;;;;;5035074;28;20599;-80
2023/06/03 00:49:36;;;;;;;8.80;4.10;;;12.80;99.90;;;;;;5034857;28;20199;-76
2023/06/03 00:52:05;;;;;;;5.80;3.63;;;12.80;99.90;;;;;;5034419;28;20577;-77
2023/06/03 00:54:32;;;;;;;8.43;4.50;;;12.80;99.90;;;;;;5033880;28;20253;-77
2023/06/03 00:56:59;;;;;;;9.40;4.20;;;12.70;99.90;;;;;;5034529;28;20202;-76
2023/06/03 00:59:26;;;;;;;8.90;4.37;;;12.70;99.90;;;;;;5033588;28;20930;-77
2023/06/03 01:01:54;;;;;;;8.30;4.90;;;12.70;99.90;;;;;;5034559;28;20202;-77
2023/06/03 01:04:25;;;;;;;9.13;3.60;;;12.70;99.90;;;;;;5033952;28;20202;-77
2023/06/03 01:07:06;;;;;;;5.80;3.80;;;12.60;99.90;;;;;;5033251;28;20555;-77
2023/06/03 01:09:44;;;;;;;5.70;3.63;;;12.60;99.90;;;;;;5034431;28;20293;-76
2023/06/03 01:12:20;;;;;;;6.77;3.90;;;12.60;99.90;;;;;;5034092;28;20564;-77
2023/06/03 01:14:54;;;;;;;5.30;3.80;;;12.60;99.90;;;;;;5034601;28;20288;-77
2023/06/03 01:17:27;;;;;;;6.00;4.13;;;12.50;99.90;;;;;;5034301;28;20289;-77
2023/06/03 01:19:58;;;;;;;5.80;3.97;;;12.50;99.90;;;;;;5033434;28;20202;-77
2023/06/03 01:22:26;;;;;;;6.73;3.87;;;12.40;99.90;;;;;;5034105;28;20237;-77
2023/06/03 01:25:03;;;;;;;6.67;3.90;;;12.40;99.90;;;;;;5034112;28;20190;-77
2023/06/03 01:27:30;;;;;;;5.33;3.67;;;12.40;99.90;;;;;;5033229;28;20183;-76
2023/06/03 01:29:57;;;;;;;7.93;4.03;;;12.40;99.90;;;;;;5034325;28;20293;-77
2023/06/03 01:32:24;;;;;;;9.13;3.97;;;12.30;99.90;;;;;;5033948;28;20225;-78
2023/06/03 01:34:52;;;;;;;6.90;3.67;;;12.30;99.90;;;;;;5033459;28;20869;-78
2023/06/03 01:37:20;;;;;;;6.93;4.17;;;12.20;99.90;;;;;;5045439;28;20318;-77
2023/06/03 01:39:48;;;;;;;5.93;3.97;;;12.20;99.90;;;;;;5053533;28;20225;-77
2023/06/03 01:42:16;;;;;;;6.57;3.53;;;12.20;99.90;;;;;;5051430;28;20225;-77
2023/06/03 01:44:43;;;;;;;10.23;4.10;;;12.20;99.90;;;;;;5045485;28;20302;-77
2023/06/03 01:47:10;;;;;;;4.13;3.60;;;12.10;99.90;;;;;;5033365;28;20232;-78
2023/06/03 01:49:37;;;;;;;6.37;3.50;;;12.10;99.90;;;;;;5032973;28;21021;-76
2023/06/03 01:52:05;;;;;;;5.67;4.30;;;12.10;99.90;;;;;;5033652;28;20221;-78
2023/06/03 01:54:32;;;;;;;5.27;3.57;;;12.10;99.90;;;;;;5041582;28;20586;-77
2023/06/03 01:56:58;;;;;;;5.20;3.43;;;12.10;99.90;;;;;;5053522;28;20194;-77
2023/06/03 01:59:27;;;;;;;5.73;3.50;;;12.00;99.90;;;;;;5053776;28;20293;-77
2023/06/03 02:01:54;;;;;;;4.97;3.33;;;12.00;99.90;;;;;;5047523;28;20221;-77
2023/06/03 02:04:21;;;;;;;5.93;3.50;;;12.00;99.90;;;;;;5033220;28;20198;-77
2023/06/03 02:06:50;;;;;;;5.97;3.93;;;12.00;99.90;;;;;;5033318;28;20234;-76
2023/06/03 02:09:17;;;;;;;5.93;3.80;;;11.90;99.90;;;;;;5032887;28;20203;-78
2023/06/03 02:11:44;;;;;;;4.50;3.27;;;11.90;99.90;;;;;;5032654;28;20309;-78
2023/06/03 02:14:11;;;;;;;5.63;3.53;;;11.90;99.90;;;;;;5033106;28;20539;-77
2023/06/03 02:16:41;;;;;;;5.13;3.27;;;11.80;99.90;;;;;;5032608;28;20286;-78
2023/06/03 02:19:12;;;;;;;7.47;3.80;;;11.80;99.90;;;;;;5033679;28;20289;-77
2023/06/03 02:21:40;;;;;;;5.17;3.33;;;11.80;99.90;;;;;;5033393;28;20249;-77
2023/06/03 02:24:09;;;;;;;4.90;3.20;;;11.70;99.90;;;;;;5032194;28;20237;-77
2023/06/03 02:26:36;;;;;;;3.97;2.90;;;11.70;99.90;;;;;;5033159;28;20206;-77
2023/06/03 02:29:03;;;;;;;5.03;4.40;;;11.60;99.90;;;;;;5033269;28;20199;-77
2023/06/03 02:31:30;;;;;;;5.70;3.57;;;11.60;99.90;;;;;;5032333;28;20199;-78
2023/06/03 02:33:59;;;;;;;4.60;3.00;;;11.60;99.90;;;;;;5032615;28;20329;-77
2023/06/03 02:36:25;;;;;;;4.37;2.97;;;11.50;99.90;;;;;;5032518;28;20238;-77
2023/06/03 02:38:52;;;;;;;3.40;2.77;;;11.50;99.90;;;;;;5032299;28;20209;-77
2023/06/03 02:41:19;;;;;;;6.23;3.10;;;11.50;99.90;;;;;;5032776;28;20417;-77
2023/06/03 02:43:46;;;;;;;4.80;3.13;;;11.50;99.90;;;;;;5032170;28;20202;-77
2023/06/03 02:46:13;;;;;;;4.10;2.73;;;11.40;99.90;;;;;;5024975;28;20202;-77
2023/06/03 02:48:40;;;;;;;4.03;2.60;;;11.40;99.90;;;;;;5032357;28;20206;-77
2023/06/03 02:51:08;;;;;;;4.53;3.00;;;11.40;99.90;;;;;;5031811;28;20209;-77
2023/06/03 02:53:35;;;;;;;3.67;2.67;;;11.40;99.90;;;;;;5032223;28;20230;-77
2023/06/03 02:56:02;;;;;;;3.83;2.90;;;11.30;99.90;;;;;;5032417;28;20191;-78
2023/06/03 02:58:29;;;;;;;3.97;3.00;;;11.30;99.90;;;;;;5031421;28;20202;-77
2023/06/03 03:00:57;;;;;;;3.40;2.80;;;11.30;99.90;;;;;;5031949;28;20241;-77
2023/06/03 03:03:25;;;;;;;4.10;3.23;;;11.20;99.90;;;;;;5032265;28;20226;-77
2023/06/03 03:05:54;;;;;;;3.07;2.10;;;11.20;99.90;;;;;;5031313;28;20198;-78
2023/06/03 03:08:23;;;;;;;4.50;2.80;;;11.20;99.90;;;;;;5039747;28;20913;-77
2023/06/03 03:10:50;;;;;;;5.10;2.90;;;11.20;99.90;;;;;;5052134;28;20594;-76
2023/06/03 03:13:17;;;;;;;3.80;2.60;;;11.20;99.90;;;;;;5051331;28;20677;-77
2023/06/03 03:15:44;;;;;;;3.43;2.70;;;11.10;99.90;;;;;;5052023;28;20194;-77
2023/06/03 03:18:11;;;;;;;2.67;2.37;;;11.10;99.90;;;;;;5043581;28;20210;-77
2023/06/03 03:20:38;;;;;;;3.80;2.77;;;11.10;99.90;;;;;;5031418;28;20261;-77
2023/06/03 03:23:06;;;;;;;3.47;2.63;;;11.00;99.90;;;;;;5031855;28;20289;-79
2023/06/03 03:25:34;;;;;;;3.33;2.50;;;11.00;99.90;;;;;;5032042;28;20202;-77
2023/06/03 03:28:01;;;;;;;3.23;2.53;;;11.00;99.90;;;;;;5031469;28;20482;-78
2023/06/03 03:30:28;;;;;;;4.10;2.77;;;11.00;99.90;;;;;;5032019;28;20217;-78
2023/06/03 03:32:58;;;;;;;3.77;2.70;;;11.00;99.90;;;;;;5045379;28;20309;-77
2023/06/03 03:35:26;;;;;;;5.13;2.80;;;11.00;99.90;;;;;;5051935;28;20198;-77
2023/06/03 03:38:02;;;;;;;3.07;2.50;;;10.90;99.90;;;;;;5051688;28;20592;-77
2023/06/03 03:40:31;;;;;;;4.40;2.70;;;10.90;99.90;;;;;;5051258;28;20202;-77
2023/06/03 03:43:02;;;;;;;3.20;2.70;;;10.90;99.90;;;;;;5032758;28;20389;-78
2023/06/03 03:45:31;;;;;;;3.60;3.13;;;10.90;99.90;;;;;;5031695;28;20264;-78
2023/06/03 03:48:02;;;;;;;3.77;2.60;;;10.90;99.90;;;;;;5031183;28;20214;-77
2023/06/03 03:50:41;;;;;;;4.57;3.10;;;10.90;99.90;;;;;;5032032;28;20289;-78
2023/06/03 03:53:10;;;;;;;4.53;3.40;;;10.90;99.90;;;;;;5032294;28;20218;-77
2023/06/03 03:55:41;;;;;;;3.90;2.80;;;10.90;99.90;;;;;;5031588;28;20194;-77
2023/06/03 03:58:26;;;;;;;4.53;3.00;;;11.00;99.90;;;;;;5032005;28;20199;-77
2023/06/03 04:00:54;;;;;;;3.17;2.77;;;11.00;99.90;;;;;;5032162;28;20194;-77
2023/06/03 04:03:23;;;;;;;3.40;2.83;;;11.00;99.90;;;;;;5048526;23;20237;-76
2023/06/03 04:05:51;;;;;;;5.57;3.60;;;11.00;99.90;;;;;;5051620;28;20610;-78
2023/06/03 04:08:40;;;;;;;4.20;2.50;;;11.00;99.90;;;;;;5050809;28;20202;-77
2023/06/03 04:11:09;;;;;;;3.60;2.50;;;11.10;99.90;;;;;;5051460;28;20200;-77
2023/06/03 04:13:41;;;;;;;3.10;2.37;;;11.10;99.90;;;;;;5050944;28;20229;-77
2023/06/03 04:16:10;;;;;;;4.40;2.30;;;11.20;99.90;;;;;;5047961;28;20217;-77
2023/06/03 04:18:40;;;;;;;3.63;2.10;;;11.30;99.90;;;;;;5031542;28;20661;-76
2023/06/03 04:21:13;;;;;;;2.97;2.37;;;11.40;99.90;;;;;;5031542;28;20209;-77
2023/06/03 04:23:40;;;;;;;3.97;2.70;;;11.40;99.90;;;;;;5030602;28;20195;-77
2023/06/03 04:26:07;;;;;;;4.83;2.57;;;11.50;99.90;;;;;;5031167;28;20211;-77
2023/06/03 04:28:33;;;;;;;3.70;2.50;;;11.60;99.90;;;;;;5031782;28;20206;-76
2023/06/03 04:31:02;;;;;;;4.03;2.10;;;11.60;99.90;;;;;;5033164;28;20229;-76
2023/06/03 04:33:28;;;;;;;3.43;2.17;;;11.70;99.90;;;;;;5035029;28;20246;-76
2023/06/03 04:35:55;;;;;;;2.57;1.90;;;11.80;99.90;;;;;;5035180;28;20206;-76
2023/06/03 04:38:22;;;;;;;3.47;2.30;;;11.80;99.90;;;;;;5034588;28;20245;-74
2023/06/03 04:40:49;;;;;;;2.80;1.80;;;11.90;99.90;;;;;;5034859;28;20202;-76
2023/06/03 04:43:19;;;;;;;3.23;2.20;;;11.90;99.90;;;;;;5034198;28;20195;-76
2023/06/03 04:45:49;;;;;;;4.37;2.37;;;12.00;99.90;;;;;;5015290;28;20272;-77
2023/06/03 04:48:17;;;;;;;2.27;1.97;;;12.10;99.90;;;;;;5014494;28;20602;-76
2023/06/03 04:50:45;;;;;;;3.67;2.20;;;12.10;99.90;;;;;;5014313;28;20208;-77
2023/06/03 04:53:12;;;;;;;3.60;2.20;;;12.20;99.90;;;;;;5022104;28;20517;-76
2023/06/03 04:55:43;;;;;;;3.73;2.00;;;12.30;99.90;;;;;;5034861;28;20257;-76
2023/06/03 04:58:10;;;;;;;2.20;1.83;;;12.40;99.90;;;;;;5015256;28;20286;-76
2023/06/03 05:00:40;;;;;;;3.17;2.20;;;12.60;99.90;;;;;;5014842;28;20195;-76
2023/06/03 05:03:08;;;;;;;2.97;2.13;;;12.90;99.90;;;;;;5014841;28;20242;-76
2023/06/03 05:05:43;;;;;;;2.77;2.07;;;13.40;99.90;;;;;;5014795;28;20226;-76
2023/06/03 05:08:10;;;;;;;3.03;1.97;;;13.90;99.90;;;;;;5014667;28;20257;-75
2023/06/03 05:10:37;;;;;;;2.42;1.85;;;14.30;99.90;;;;;;5014665;28;20295;-76
2023/06/03 05:13:05;;;;;;;2.15;1.70;;;14.70;99.90;;;;;;5020155;28;20313;-76
2023/06/03 05:15:33;;;;;;;2.58;2.10;;;15.10;99.90;;;;;;5034421;28;20218;-75
2023/06/03 05:18:00;;;;;;;4.25;2.03;;;15.40;99.90;;;;;;5034437;28;20205;-76
2023/06/03 05:20:28;;;;;;;3.17;1.80;;;15.70;99.90;;;;;;5033914;28;20203;-77
2023/06/03 05:22:57;;;;;;;2.90;1.80;;;15.90;99.90;;;;;;5034004;28;20266;-76
2023/06/03 05:25:24;;;;;;;3.03;2.05;;;16.20;99.90;;;;;;5032777;28;20290;-76
2023/06/03 05:27:51;;;;;;;4.93;1.90;;;16.40;99.90;;;;;;5034417;28;20205;-77
2023/06/03 05:30:18;;;;;;;3.55;1.90;;;16.60;99.90;;;;;;5026035;28;20286;-76
2023/06/03 05:32:46;;;;;;;3.60;1.98;;;16.80;99.90;;;;;;5013517;28;20215;-76
2023/06/03 05:35:12;;;;;;;4.38;2.25;;;17.00;99.90;;;;;;5013972;28;20230;-77
2023/06/03 05:37:39;;;;;;;3.92;1.58;;;17.30;99.90;;;;;;5014904;28;20207;-76
2023/06/03 05:40:09;;;;;;;2.78;1.58;;;17.40;99.90;;;;;;5013529;28;20539;-76
2023/06/03 05:42:36;;;;;;;2.53;1.58;;;17.70;99.90;;;;;;5013732;28;20215;-75
2023/06/03 05:45:03;;;;;;;1.70;1.58;;;18.00;99.90;;;;;;5020438;28;20621;-76
2023/06/03 05:47:30;;;;;;;2.70;1.73;;;18.10;99.90;;;;;;5033329;28;20202;-77
2023/06/03 05:49:57;;;;;;;1.80;1.27;;;18.20;99.90;;;;;;5033542;28;20201;-76
2023/06/03 05:52:24;;;;;;;3.38;1.60;;;18.40;99.90;;;;;;5033654;28;20199;-76
2023/06/03 05:54:51;;;;;;;1.95;1.70;;;18.50;99.90;;;;;;5017433;28;20666;-76
2023/06/03 05:57:19;;;;;;;3.33;1.55;;;18.70;99.90;;;;;;5013947;28;20199;-77
2023/06/03 05:59:47;;;;;;;2.88;1.52;;;18.70;99.90;;;;;;5013972;28;20516;-75
2023/06/03 06:02:14;;;;;;;1.75;1.65;;;19.00;99.90;;;;;;5012844;28;20281;-75
2023/06/03 06:04:41;;;;;;;2.78;1.42;;;19.20;99.90;;;;;;5028011;28;20194;-76
2023/06/03 06:07:07;;;;;;;2.83;1.55;;;19.20;99.90;;;;;;5033511;28;20209;-76
2023/06/03 06:09:34;;;;;;;3.28;1.55;;;19.00;99.90;;;;;;5032579;28;20216;-80
2023/06/03 06:12:01;;;;;;;3.83;1.63;;;19.10;99.90;;;;;;5033349;28;20233;-75
2023/06/03 06:14:30;;;;;;;3.70;1.92;;;19.30;99.90;;;;;;5032451;28;20223;-77
2023/06/03 06:16:56;;;;;;;1.73;1.50;;;19.20;99.90;;;;;;5024091;28;20253;-76
2023/06/03 06:19:24;;;;;;;3.78;1.73;;;19.40;99.90;;;;;;5013053;28;20503;-76
2023/06/03 06:21:51;;;;;;;2.67;1.70;;;19.70;99.90;;;;;;5012523;28;20265;-76
2023/06/03 06:24:18;;;;;;;2.45;1.60;;;19.60;99.90;;;;;;5018129;28;20199;-76
2023/06/03 06:26:45;;;;;;;2.10;1.73;;;19.90;99.90;;;;;;5033184;28;20463;-77
2023/06/03 06:29:12;;;;;;;2.20;1.52;;;20.10;99.90;;;;;;5032347;28;20268;-76
2023/06/03 06:31:40;;;;;;;1.92;1.50;;;20.10;99.90;;;;;;5032369;28;20199;-76
2023/06/03 06:34:09;;;;;;;3.95;1.50;;;20.10;99.90;;;;;;5013145;28;20310;-76
2023/06/03 06:36:43;;;;;;;3.28;1.80;;;20.30;99.90;;;;;;5011711;28;20203;-77
2023/06/03 06:39:40;;;;;;;4.40;1.80;;;20.30;99.90;;;;;;5013463;28;20211;-76
2023/06/03 06:42:11;;;;;;;2.08;1.42;;;20.10;99.90;;;;;;5024410;28;20232;-76
2023/06/03 06:44:45;;;;;;;2.10;1.58;;;20.40;99.90;;;;;;5032399;28;20278;-77
2023/06/03 06:47:20;;;;;;;3.63;1.30;;;20.80;99.90;;;;;;5032256;28;20248;-76
2023/06/03 06:49:47;;;;;;;5.72;1.48;;;21.20;99.90;;;;;;5032180;28;20249;-78
2023/06/03 06:52:15;;;;;;;5.38;1.60;;;21.30;99.90;;;;;;5032583;28;20206;-78
2023/06/03 06:54:42;;;;;;;2.85;1.35;;;21.30;99.90;;;;;;5017721;28;20220;-77
2023/06/03 06:57:09;;;;;;;1.98;1.30;;;21.50;99.90;;;;;;5012307;28;20204;-76
2023/06/03 06:59:36;;;;;;;2.80;1.42;;;21.70;99.90;;;;;;5012530;28;20270;-76
2023/06/03 07:02:03;;;;;;;2.33;1.40;;;21.70;99.90;;;;;;5012796;28;20210;-77
2023/06/03 07:04:32;;;;;;;1.42;1.30;;;21.80;99.90;;;;;;5012122;28;20276;-78
2023/06/03 07:06:59;;;;;;;4.38;1.65;;;22.00;99.90;;;;;;5012590;28;20655;-76
2023/06/03 07:09:26;;;;;;;2.17;1.20;;;21.70;99.90;;;;;;5012411;28;20592;-76
2023/06/03 07:11:53;;;;;;;3.03;1.60;;;21.90;99.90;;;;;;5029923;28;20603;-76
2023/06/03 07:14:20;;;;;;;2.70;1.20;;;22.00;99.90;;;;;;5032392;28;20284;-76
2023/06/03 07:16:49;;;;;;;3.03;1.27;;;22.40;99.90;;;;;;5032180;28;20199;-77
2023/06/03 07:19:16;;;;;;;1.90;1.27;;;22.40;99.90;;;;;;5023716;28;20298;-76
2023/06/03 07:21:44;;;;;;;4.15;1.48;;;22.60;99.90;;;;;;5012290;28;20199;-76
2023/06/03 07:24:12;;;;;;;3.88;1.50;;;22.50;99.90;;;;;;5017029;28;20531;-77
2023/06/03 07:26:40;;;;;;;1.25;1.10;;;22.50;99.90;;;;;;5031415;28;20509;-77
2023/06/03 07:29:07;;;;;;;3.80;1.67;;;22.60;99.90;;;;;;5032144;28;20209;-77
2023/06/03 07:31:36;;;;;;;3.08;1.33;;;22.70;99.90;;;;;;5031993;28;20202;-76
2023/06/03 07:34:04;;;;;;;1.95;1.42;;;22.60;99.90;;;;;;5030959;28;20213;-77
2023/06/03 07:36:31;;;;;;;2.60;1.25;;;22.60;99.90;;;;;;5030873;28;20814;-79
2023/06/03 07:39:03;;;;;;;3.28;1.50;;;22.80;99.90;;;;;;5008189;28;20195;-77
2023/06/03 07:41:37;;;;;;;3.47;1.00;;;22.80;99.90;;;;;;5030466;28;20230;-78
2023/06/03 07:44:06;;;;;;;1.63;1.17;;;23.00;99.90;;;;;;5030813;28;20227;-78
2023/06/03 07:46:49;;;;;;;3.10;1.38;;;23.10;99.90;;;;;;5030112;28;20197;-77
2023/06/03 07:49:17;;;;;;;2.25;1.33;;;23.30;99.90;;;;;;5030590;28;20664;-78
2023/06/03 07:51:47;;;;;;;5.13;1.75;;;23.10;99.90;;;;;;5031466;28;20209;-79
2023/06/03 07:54:15;;;;;;;3.67;1.30;;;22.90;99.90;;;;;;5030774;28;20218;-76
2023/06/03 07:56:44;;;;;;;2.97;1.30;;;23.00;99.90;;;;;;5021695;28;20210;-77
2023/06/03 07:59:13;;;;;;;3.50;1.30;;;23.10;99.90;;;;;;5031442;28;20255;-77
2023/06/03 08:01:40;;;;;;;3.83;1.35;;;23.30;99.90;;;;;;5030817;28;20199;-79
2023/06/03 08:04:26;;;;;;;2.45;1.20;;;23.30;99.90;;;;;;5042899;28;20248;-79
2023/06/03 08:06:53;;;;;;;2.45;1.30;;;23.60;99.90;;;;;;5031312;28;20202;-77
2023/06/03 08:09:27;;;;;;;2.67;1.50;;;24.00;99.90;;;;;;5034989;28;20233;-77
2023/06/03 08:11:53;;;;;;;2.05;1.25;;;24.10;99.90;;;;;;5034752;28;20684;-76
2023/06/03 08:14:21;;;;;;;1.85;1.40;;;23.90;99.90;;;;;;5030622;28;20241;-76
2023/06/03 08:16:48;;;;;;;4.03;1.70;;;24.00;99.90;;;;;;5015716;28;20199;-77
2023/06/03 08:19:18;;;;;;;2.75;1.50;;;23.90;99.90;;;;;;5015771;28;20286;-77
2023/06/03 08:21:45;;;;;;;3.75;1.52;;;24.00;99.90;;;;;;5015160;28;20277;-79
2023/06/03 08:24:13;;;;;;;1.80;1.48;;;24.10;99.90;;;;;;5025406;28;20685;-76
2023/06/03 08:26:41;;;;;;;3.13;1.48;;;23.60;99.90;;;;;;5035173;28;20201;-77
2023/06/03 08:29:08;;;;;;;3.70;1.33;;;23.80;99.90;;;;;;5034353;28;20269;-78
2023/06/03 08:31:35;;;;;;;2.15;1.40;;;23.90;99.90;;;;;;5016879;28;20306;-77
2023/06/03 08:34:03;;;;;;;3.65;1.35;;;23.90;99.90;;;;;;5015390;28;20285;-76
2023/06/03 08:36:30;;;;;;;4.18;1.50;;;23.80;99.90;;;;;;5014845;28;20203;-77
2023/06/03 08:38:57;;;;;;;2.97;1.65;;;24.00;99.90;;;;;;5015938;28;20753;-78
2023/06/03 08:41:26;;;;;;;3.47;1.40;;;23.80;99.90;;;;;;5014764;28;20967;-77
2023/06/03 08:44:04;;;;;;;1.80;1.60;;;23.90;99.90;;;;;;5015149;28;20252;-77
2023/06/03 08:46:37;;;;;;;2.47;1.48;;;23.90;99.90;;;;;;5015099;28;20487;-78
2023/06/03 08:49:07;;;;;;;1.63;1.17;;;24.00;99.90;;;;;;5015071;28;20202;-77
2023/06/03 08:51:38;;;;;;;1.90;1.60;;;24.20;99.90;;;;;;5013831;28;20595;-77
2023/06/03 08:54:11;;;;;;;2.50;1.50;;;24.20;99.90;;;;;;5026689;28;20210;-80
2023/06/03 08:56:42;;;;;;;2.22;1.58;;;24.30;99.90;;;;;;5032408;28;20194;-79
2023/06/03 08:59:15;;;;;;;3.17;1.30;;;24.30;99.90;;;;;;5034706;28;20229;-80
2023/06/03 09:01:47;;;;;;;3.15;1.52;;;24.60;99.90;;;;;;5034005;28;20568;-80
2023/06/03 09:04:15;;;;;;;3.72;1.52;;;24.60;99.90;;;;;;5033329;28;20342;-80
2023/06/03 09:06:44;;;;;;;3.45;1.65;;;24.60;99.90;;;;;;5034061;28;20212;-78
2023/06/03 09:09:13;;;;;;;4.30;1.45;;;24.40;99.90;;;;;;5034607;28;20213;-77
2023/06/03 09:11:40;;;;;;;5.60;1.70;;;24.30;99.90;;;;;;5032545;28;20761;-78
2023/06/03 09:14:10;;;;;;;2.08;1.52;;;24.40;99.90;;;;;;5034091;28;20594;-78
2023/06/03 09:16:37;;;;;;;3.00;1.70;;;24.40;99.90;;;;;;5032650;28;20206;-77
2023/06/03 09:19:04;;;;;;;6.07;2.00;;;24.30;99.90;;;;;;5033035;28;20198;-78
2023/06/03 09:21:31;;;;;;;2.33;2.03;;;24.60;99.90;;;;;;5034298;28;20230;-81
2023/06/03 09:23:58;;;;;;;2.33;1.70;;;24.40;99.90;;;;;;5034312;28;20213;-80
2023/06/03 09:26:26;;;;;;;2.50;1.90;;;24.20;99.90;;;;;;5032938;28;20290;-77
2023/06/03 09:28:52;;;;;;;2.30;1.45;;;24.20;99.90;;;;;;5033935;28;20209;-78
2023/06/03 09:31:21;;;;;;;4.43;1.95;;;23.90;99.90;;;;;;5033800;28;20198;-78
2023/06/03 09:33:50;;;;;;;3.60;1.65;;;24.00;99.90;;;;;;5031710;28;20206;-78
2023/06/03 09:36:17;;;;;;;1.77;1.40;;;23.90;99.90;;;;;;5019864;28;20205;-77
2023/06/03 09:38:48;;;;;;;1.92;1.70;;;24.10;99.90;;;;;;5013696;28;20218;-78
2023/06/03 09:41:16;;;;;;;2.33;1.55;;;24.00;99.90;;;;;;5014880;28;20566;-77
2023/06/03 09:43:54;;;;;;;2.60;1.40;;;24.10;99.90;;;;;;5014282;28;20650;-78
2023/06/03 09:46:22;;;;;;;3.08;1.50;;;24.40;99.90;;;;;;5013775;28;20202;-77
2023/06/03 09:48:49;;;;;;;2.78;1.98;;;24.50;99.90;;;;;;5014327;28;20502;-78
2023/06/03 09:51:16;;;;;;;3.15;1.55;;;24.50;99.90;;;;;;5031249;28;20207;-77
2023/06/03 09:53:43;;;;;;;3.63;1.10;;;24.40;99.90;;;;;;5032559;28;20285;-78
2023/06/03 09:56:24;;;;;;;2.08;1.00;;;24.50;99.90;;;;;;5033235;28;20897;-78
2023/06/03 09:58:52;;;;;;;2.65;1.10;;;24.40;99.90;;;;;;5032789;28;20211;-78
2023/06/03 10:01:33;;;;;;;1.80;1.27;;;24.50;99.90;;;;;;5033182;28;20205;-78
2023/06/03 10:04:00;;;;;;;2.75;1.30;;;24.30;99.90;;;;;;5033162;28;20230;-78
2023/06/03 10:06:27;;;;;;;1.25;0.98;;;24.40;99.90;;;;;;5032881;28;20293;-78
2023/06/03 10:08:54;;;;;;;5.53;1.30;;;24.60;99.90;;;;;;5012824;28;20242;-80
2023/06/03 10:11:23;;;;;;;3.00;1.33;;;24.80;99.90;;;;;;5013713;28;20290;-80
2023/06/03 10:14:03;;;;;;;2.20;1.20;;;24.60;99.90;;;;;;5013184;28;20214;-79
2023/06/03 10:16:30;;;;;;;1.33;0.93;;;24.50;99.90;;;;;;5031042;28;20194;-79
2023/06/03 10:18:59;;;;;;;2.47;1.10;;;24.60;99.90;;;;;;5032885;28;20191;-80
2023/06/03 10:21:28;;;;;;;2.88;1.00;;;24.80;99.90;;;;;;5021348;28;20207;-78
2023/06/03 10:23:59;;;;;;;2.13;1.00;;;24.90;99.90;;;;;;5013337;28;20205;-79
2023/06/03 10:26:27;;;;;;;3.28;1.00;;;25.10;99.90;;;;;;5013420;28;20237;-79
2023/06/03 10:28:55;;;;;;;4.47;1.42;;;24.90;99.90;;;;;;5012336;28;20604;-76
2023/06/03 10:31:24;;;;;;;2.63;1.00;;;24.70;99.90;;;;;;5013934;28;20207;-78
2023/06/03 10:33:52;;;;;;;2.55;1.00;;;24.40;99.90;;;;;;5013091;28;20199;-78
2023/06/03 10:36:24;;;;;;;3.88;1.10;;;24.30;99.90;;;;;;5027672;28;20336;-77
2023/06/03 10:38:52;;;;;;;2.17;1.33;;;24.10;99.90;;;;;;5032540;28;20249;-77
2023/06/03 10:41:20;;;;;;;5.63;1.17;;;24.10;99.90;;;;;;5041324;23;20626;-79
2023/06/03 10:43:47;;;;;;;2.80;1.23;;;24.30;99.90;;;;;;5035087;28;20265;-79
2023/06/03 10:46:16;;;;;;;3.80;1.00;;;24.60;99.90;;;;;;5032210;28;20221;-78
2023/06/03 10:48:45;;;;;;;2.83;1.00;;;24.80;99.90;;;;;;5032310;28;20194;-79
2023/06/03 10:51:36;;;;;;;2.10;1.05;;;25.30;99.90;;;;;;5031430;28;20203;-77
2023/06/03 10:54:18;;;;;;;2.25;1.10;;;25.30;99.90;;;;;;5032404;28;20198;-78
2023/06/03 10:56:51;;;;;;;1.00;0.85;;;25.50;99.90;;;;;;5030538;28;20752;-80
2023/06/03 10:59:23;;;;;;;4.75;1.10;;;25.90;99.90;;;;;;5032097;28;20191;-79
2023/06/03 11:01:58;;;;;;;2.72;1.25;;;26.10;99.90;;;;;;5033191;28;20190;-83
2023/06/03 11:04:26;;;;;;;2.83;1.10;;;25.30;99.90;;;;;;5031570;28;20198;-79
2023/06/03 11:06:54;;;;;;;1.92;1.42;;;25.40;99.90;;;;;;5032260;28;20288;-81
2023/06/03 11:09:37;;;;;;;1.63;1.10;;;25.30;99.90;;;;;;5032670;28;20199;-82
2023/06/03 11:12:09;;;;;;;2.88;1.42;;;25.20;99.90;;;;;;5032121;28;20260;-78
2023/06/03 11:14:57;;;;;;;3.20;1.02;;;25.30;99.90;;;;;;5032470;28;20238;-82
2023/06/03 11:17:25;;;;;;;1.48;1.00;;;25.00;99.90;;;;;;5031421;28;20293;-80
2023/06/03 11:19:54;;;;;;;3.08;1.23;;;25.10;99.90;;;;;;5031750;28;20588;-78
2023/06/03 11:22:42;;;;;;;1.75;1.05;;;25.00;99.90;;;;;;5032538;28;20251;-78
2023/06/03 11:25:09;;;;;;;3.92;1.00;;;24.80;99.90;;;;;;5031626;28;20473;-77
2023/06/03 11:27:37;;;;;;;3.70;1.10;;;24.70;99.90;;;;;;5031664;28;20666;-77
2023/06/03 11:30:07;;;;;;;2.58;0.98;;;24.90;99.90;;;;;;5032050;28;20203;-78
2023/06/03 11:32:35;;;;;;;3.47;1.20;;;25.20;99.90;;;;;;5022871;28;20206;-78
2023/06/03 11:35:27;;;;;;;1.25;1.02;;;25.40;99.90;;;;;;5030981;28;20234;-77
2023/06/03 11:37:56;;;;;;;1.67;1.13;;;25.70;99.90;;;;;;5032013;28;20244;-78
2023/06/03 11:40:24;;;;;;;1.52;1.10;;;25.40;99.90;;;;;;5033767;28;20206;-79
2023/06/03 11:43:07;;;;;;;3.85;1.65;;;25.20;99.90;;;;;;5035517;28;20248;-76
2023/06/03 11:45:36;;;;;;;2.85;1.20;;;25.00;99.90;;;;;;5034697;28;20210;-76
2023/06/03 11:48:07;;;;;;;3.35;1.20;;;25.10;99.90;;;;;;5035429;28;20209;-80
2023/06/03 11:50:44;;;;;;;3.13;1.48;;;25.40;99.90;;;;;;5042400;28;20197;-78
2023/06/03 11:53:28;;;;;;;2.47;1.15;;;25.10;99.90;;;;;;5053883;28;20273;-78
2023/06/03 11:56:05;;;;;;;1.63;1.00;;;24.90;99.90;;;;;;5046538;28;20226;-78
2023/06/03 11:58:33;;;;;;;4.20;1.10;;;25.10;99.90;;;;;;5035554;28;20225;-77
2023/06/03 12:01:07;;;;;;;0.93;0.80;;;25.50;99.90;;;;;;5034513;28;20210;-78
2023/06/03 12:03:35;;;;;;;4.32;1.10;;;25.90;99.90;;;;;;5034919;28;20209;-78
2023/06/03 12:06:04;;;;;;;3.60;1.08;;;25.90;99.90;;;;;;5035548;28;20522;-82
2023/06/03 12:08:48;;;;;;;3.28;1.20;;;25.30;99.90;;;;;;5034919;28;20206;-78
2023/06/03 12:11:26;;;;;;;2.53;1.35;;;25.00;99.90;;;;;;5035331;28;20257;-78
2023/06/03 12:13:53;;;;;;;1.25;1.00;;;25.00;99.90;;;;;;5034621;28;20261;-79
2023/06/03 12:16:31;;;;;;;1.83;0.93;;;25.20;99.90;;;;;;5035168;28;20218;-77
2023/06/03 12:18:59;;;;;;;3.92;1.15;;;25.20;99.90;;;;;;5034669;28;20519;-81
2023/06/03 12:21:26;;;;;;;1.65;0.95;;;25.00;99.90;;;;;;5034337;28;20202;-77
2023/06/03 12:23:54;;;;;;;3.17;0.90;;;24.90;99.90;;;;;;5034819;28;20198;-78
2023/06/03 12:26:21;;;;;;;2.60;0.80;;;24.70;99.90;;;;;;5035126;28;20248;-79
2023/06/03 12:28:48;;;;;;;1.63;1.13;;;24.80;99.90;;;;;;5033816;28;20611;-78
2023/06/03 12:31:15;;;;;;;2.13;1.00;;;25.00;99.90;;;;;;5034911;28;20621;-78
2023/06/03 12:33:43;;;;;;;1.92;1.10;;;25.10;99.90;;;;;;5034592;28;20293;-78
2023/06/03 12:36:10;;;;;;;4.60;1.00;;;25.30;99.90;;;;;;5033842;28;20242;-79
2023/06/03 12:38:57;;;;;;;1.80;0.90;;;25.20;99.90;;;;;;5034337;28;20206;-80
2023/06/03 12:41:24;;;;;;;2.85;1.05;;;25.20;99.90;;;;;;5034552;28;20215;-78
2023/06/03 12:44:00;;;;;;;0.93;0.80;;;25.10;99.90;;;;;;5034954;28;20634;-77
2023/06/03 12:46:27;;;;;;;2.53;0.82;;;24.90;99.90;;;;;;5034923;28;20194;-79
2023/06/03 12:48:56;;;;;;;1.42;0.93;;;24.60;99.90;;;;;;5033596;28;20291;-77
2023/06/03 12:51:25;;;;;;;2.28;1.13;;;24.80;99.90;;;;;;5033164;28;20614;-78
2023/06/03 12:53:56;;;;;;;2.45;0.98;;;24.80;99.90;;;;;;5033915;28;20205;-78
2023/06/03 12:56:25;;;;;;;3.33;1.20;;;24.60;99.90;;;;;;5034211;28;20214;-79